Time;durP1;ratioP1;P1;durP2;ratioP2;P2;SDS_P1;SDS_P2;PMS_P1;PMS_P2;Temp;Humidity;BMP_temperature;BMP_pressure;BME280_temperature;BME280_humidity;BME280_pressure;Samples;Min_cycle;Max_cycle;Signal;HPM_P1;HPM_P2
2020/12/01 00:01:30;;;;;;;5.57;5.07;;;6.20;99.90;;;;;;5054187;28;20182;-38
2020/12/01 00:03:56;;;;;;;5.80;5.10;;;6.30;99.90;;;;;;5050229;28;20498;-38
2020/12/01 00:06:22;;;;;;;8.67;5.77;;;5.90;99.90;;;;;;5063652;28;20416;-38
2020/12/01 00:08:48;;;;;;;5.33;4.83;;;6.00;99.90;;;;;;5070199;28;20197;-38
2020/12/01 00:11:15;;;;;;;6.30;5.47;;;6.30;99.90;;;;;;5069536;28;20462;-38
2020/12/01 00:13:41;;;;;;;6.03;5.10;;;6.10;99.90;;;;;;5069432;28;20422;-37
2020/12/01 00:16:11;;;;;;;6.27;5.67;;;5.90;99.90;;;;;;5068297;28;20415;-37
2020/12/01 00:18:37;;;;;;;7.00;6.30;;;6.20;99.90;;;;;;5069782;28;20476;-37
2020/12/01 00:21:03;;;;;;;4.90;4.40;;;6.00;99.90;;;;;;5069684;28;20416;-38
2020/12/01 00:23:29;;;;;;;6.20;5.60;;;6.00;99.90;;;;;;5069225;28;20424;-37
2020/12/01 00:25:54;;;;;;;5.57;5.07;;;6.00;99.90;;;;;;5069436;28;20694;-38
2020/12/01 00:28:20;;;;;;;6.10;5.50;;;5.90;99.90;;;;;;5062269;28;20190;-38
2020/12/01 00:30:46;;;;;;;5.53;4.90;;;6.20;99.90;;;;;;5064012;28;20675;-38
2020/12/01 00:33:12;;;;;;;5.10;4.60;;;5.90;99.90;;;;;;5067882;28;20280;-38
2020/12/01 00:35:38;;;;;;;5.27;4.73;;;5.90;99.90;;;;;;5051438;28;20248;-38
2020/12/01 00:38:04;;;;;;;5.40;4.90;;;6.10;99.90;;;;;;5069347;28;20287;-38
2020/12/01 00:40:30;;;;;;;6.10;5.40;;;5.80;99.90;;;;;;5069041;28;20564;-38
2020/12/01 00:42:55;;;;;;;5.17;4.63;;;5.80;99.90;;;;;;5068779;28;20192;-38
2020/12/01 00:45:21;;;;;;;5.77;4.90;;;6.20;99.90;;;;;;5068009;28;20432;-38
2020/12/01 00:47:47;;;;;;;5.67;4.70;;;6.20;99.90;;;;;;5069249;28;20404;-38
2020/12/01 00:50:16;;;;;;;5.97;4.83;;;6.20;99.90;;;;;;5069209;28;20280;-38
2020/12/01 00:52:42;;;;;;;4.30;3.57;;;6.20;99.90;;;;;;5068768;28;20193;-38
2020/12/01 00:55:08;;;;;;;5.23;4.67;;;6.30;99.90;;;;;;5067293;28;20438;-38
2020/12/01 00:57:34;;;;;;;4.30;3.90;;;6.10;99.90;;;;;;5069002;28;20515;-38
2020/12/01 01:00:00;;;;;;;5.97;4.80;;;6.10;99.90;;;;;;5069077;28;20514;-38
2020/12/01 01:02:25;;;;;;;5.03;4.53;;;6.20;99.90;;;;;;5067595;28;20189;-38
2020/12/01 01:04:51;;;;;;;4.80;4.37;;;6.30;99.90;;;;;;5068056;28;20786;-38
2020/12/01 01:07:18;;;;;;;5.23;4.73;;;6.10;99.90;;;;;;5068526;28;20299;-38
2020/12/01 01:09:44;;;;;;;5.53;4.97;;;6.10;99.90;;;;;;5069062;28;20196;-37
2020/12/01 01:12:10;;;;;;;5.57;4.70;;;6.20;99.90;;;;;;5068823;28;20434;-38
2020/12/01 01:14:37;;;;;;;4.83;4.33;;;6.30;99.90;;;;;;5068475;28;20447;-38
2020/12/01 01:17:03;;;;;;;4.77;4.27;;;6.00;99.90;;;;;;5067230;28;20541;-38
2020/12/01 01:19:29;;;;;;;4.80;4.33;;;6.30;99.90;;;;;;5067136;28;20479;-38
2020/12/01 01:21:54;;;;;;;4.07;3.70;;;6.40;99.90;;;;;;5068484;28;20181;-39
2020/12/01 01:24:20;;;;;;;5.67;4.60;;;6.20;99.90;;;;;;5067792;28;20193;-38
2020/12/01 01:26:51;;;;;;;7.40;4.73;;;6.00;99.90;;;;;;5068335;28;20204;-38
2020/12/01 01:29:17;;;;;;;4.30;3.90;;;6.20;99.90;;;;;;5053581;28;20798;-38
2020/12/01 01:31:43;;;;;;;5.73;5.07;;;6.10;99.90;;;;;;5068403;28;20462;-38
2020/12/01 01:34:09;;;;;;;8.60;5.27;;;6.10;99.90;;;;;;5067606;28;20423;-38
2020/12/01 01:36:35;;;;;;;7.47;5.00;;;5.90;99.90;;;;;;5067969;28;20196;-38
2020/12/01 01:39:03;;;;;;;6.20;5.60;;;6.20;99.90;;;;;;5068297;28;20219;-38
2020/12/01 01:41:31;;;;;;;6.67;5.80;;;6.30;99.90;;;;;;5068612;28;20478;-38
2020/12/01 01:43:57;;;;;;;8.90;7.00;;;6.40;99.90;;;;;;5066208;28;20434;-39
2020/12/01 01:46:37;;;;;;;7.40;6.63;;;6.10;99.90;;;;;;5068660;28;20917;-38
2020/12/01 01:49:06;;;;;;;8.13;6.60;;;6.20;99.90;;;;;;5067186;28;20199;-37
2020/12/01 01:51:34;;;;;;;8.80;7.90;;;6.10;99.90;;;;;;5068207;28;20853;-38
2020/12/01 01:54:00;;;;;;;9.07;8.17;;;6.00;99.90;;;;;;5066174;28;20419;-38
2020/12/01 01:56:35;;;;;;;9.80;8.23;;;6.00;99.90;;;;;;5067933;28;21094;-38
2020/12/01 01:59:02;;;;;;;7.83;6.97;;;6.20;99.90;;;;;;5067842;28;20972;-38
2020/12/01 02:01:29;;;;;;;11.07;8.40;;;6.00;99.90;;;;;;5068056;28;20423;-39
2020/12/01 02:03:59;;;;;;;8.87;7.83;;;6.10;99.90;;;;;;5067236;28;20537;-38
2020/12/01 02:06:52;;;;;;;9.80;7.97;;;6.00;99.90;;;;;;5067988;28;20438;-37
2020/12/01 02:09:26;;;;;;;8.30;7.30;;;6.40;99.90;;;;;;5068165;28;20430;-38
2020/12/01 02:11:51;;;;;;;9.77;7.70;;;6.40;99.90;;;;;;5068398;28;20434;-38
2020/12/01 02:14:28;;;;;;;9.80;7.33;;;6.30;99.90;;;;;;5067609;28;20799;-38
2020/12/01 02:16:57;;;;;;;10.37;8.00;;;6.10;99.90;;;;;;5065972;28;20204;-38
2020/12/01 02:19:29;;;;;;;8.17;7.10;;;6.20;99.90;;;;;;5068082;28;20459;-38
2020/12/01 02:21:58;;;;;;;9.00;7.20;;;5.90;99.90;;;;;;5067848;28;20498;-38
2020/12/01 02:24:27;;;;;;;8.30;7.33;;;5.90;99.90;;;;;;5066999;28;20455;-38
2020/12/01 02:26:56;;;;;;;8.40;6.90;;;6.30;99.90;;;;;;5066429;28;21075;-38
2020/12/01 02:29:26;;;;;;;8.53;6.83;;;6.20;99.90;;;;;;5054238;28;20964;-38
2020/12/01 02:31:52;;;;;;;8.77;7.10;;;6.10;99.90;;;;;;5067669;28;20945;-38
2020/12/01 02:34:20;;;;;;;7.53;6.37;;;6.40;99.90;;;;;;5066976;28;20438;-38
2020/12/01 02:36:45;;;;;;;8.17;6.10;;;6.20;99.90;;;;;;5067496;28;20533;-38
2020/12/01 02:39:13;;;;;;;7.80;6.60;;;6.00;99.90;;;;;;5067259;28;20566;-38
2020/12/01 02:41:39;;;;;;;5.73;5.20;;;5.90;99.90;;;;;;5067265;28;20731;-38
2020/12/01 02:44:06;;;;;;;6.80;6.10;;;5.90;99.90;;;;;;5066871;28;20427;-38
2020/12/01 02:46:36;;;;;;;7.50;6.13;;;5.90;99.90;;;;;;5066431;28;20764;-37
2020/12/01 02:49:06;;;;;;;6.83;5.67;;;6.00;99.90;;;;;;5067455;28;20431;-38
2020/12/01 02:51:33;;;;;;;5.73;5.23;;;6.00;99.90;;;;;;5066062;28;20402;-38
2020/12/01 02:53:59;;;;;;;6.10;5.50;;;5.80;99.90;;;;;;5066766;28;20446;-38
2020/12/01 02:56:25;;;;;;;6.00;5.40;;;5.70;99.90;;;;;;5067612;28;20466;-38
2020/12/01 02:58:51;;;;;;;8.57;6.30;;;6.00;99.90;;;;;;5067371;28;20936;-38
2020/12/01 03:01:17;;;;;;;7.33;5.37;;;5.80;99.90;;;;;;5070363;28;20184;-38
2020/12/01 03:03:43;;;;;;;7.50;6.20;;;5.90;99.90;;;;;;5070764;28;20427;-38
2020/12/01 03:06:11;;;;;;;6.80;5.93;;;5.90;99.90;;;;;;5071417;28;20481;-38
2020/12/01 03:08:37;;;;;;;7.13;6.03;;;5.90;99.90;;;;;;5071048;28;20790;-38
2020/12/01 03:11:03;;;;;;;6.30;5.70;;;6.30;99.90;;;;;;5071296;28;20437;-38
2020/12/01 03:13:29;;;;;;;7.93;6.60;;;6.20;99.90;;;;;;5070239;28;20217;-38
2020/12/01 03:15:56;;;;;;;8.90;7.10;;;6.00;99.90;;;;;;5070114;28;20250;-38
2020/12/01 03:18:22;;;;;;;7.77;6.30;;;6.20;99.90;;;;;;5069689;28;20619;-38
2020/12/01 03:20:48;;;;;;;8.10;6.67;;;6.30;99.90;;;;;;5069314;28;20489;-38
2020/12/01 03:23:14;;;;;;;7.70;6.90;;;6.10;99.90;;;;;;5070398;28;20185;-38
2020/12/01 03:25:40;;;;;;;6.93;5.97;;;6.00;99.90;;;;;;5070637;28;20423;-38
2020/12/01 03:28:05;;;;;;;8.53;6.87;;;6.10;99.90;;;;;;5058985;28;20424;-38
2020/12/01 03:30:31;;;;;;;8.40;6.70;;;6.10;99.90;;;;;;5043174;28;20255;-38
2020/12/01 03:32:57;;;;;;;8.57;6.40;;;6.00;99.90;;;;;;5050068;28;20190;-38
2020/12/01 03:35:22;;;;;;;7.50;6.57;;;6.10;99.90;;;;;;5050735;28;20248;-38
2020/12/01 03:37:48;;;;;;;7.90;6.53;;;6.10;99.90;;;;;;5050599;28;20321;-38
2020/12/01 03:40:14;;;;;;;8.03;6.30;;;6.20;99.90;;;;;;5049174;28;20606;-38
2020/12/01 03:42:39;;;;;;;7.80;6.80;;;6.00;99.90;;;;;;5050665;28;20296;-38
2020/12/01 03:45:05;;;;;;;9.10;7.10;;;6.20;99.90;;;;;;5050238;28;20685;-38
2020/12/01 03:47:31;;;;;;;8.30;7.07;;;6.20;99.90;;;;;;5050355;28;20259;-38
2020/12/01 03:49:56;;;;;;;9.63;6.93;;;6.20;99.90;;;;;;5028948;28;20237;-38
2020/12/01 03:52:22;;;;;;;8.53;6.87;;;6.00;99.90;;;;;;5048707;28;20321;-38
2020/12/01 03:54:48;;;;;;;8.80;6.67;;;6.00;99.90;;;;;;5049784;28;20436;-39
2020/12/01 03:57:14;;;;;;;8.07;7.23;;;6.10;99.90;;;;;;5050252;28;20698;-38
2020/12/01 03:59:39;;;;;;;8.17;6.63;;;6.20;99.90;;;;;;5050391;28;20217;-38
2020/12/01 04:02:05;;;;;;;8.60;7.30;;;6.20;99.90;;;;;;5050147;28;20272;-38
2020/12/01 04:04:31;;;;;;;10.13;7.13;;;5.90;99.90;;;;;;5048382;28;20193;-38
2020/12/01 04:06:57;;;;;;;11.03;7.87;;;5.80;99.90;;;;;;5050089;28;20218;-38
2020/12/01 04:09:24;;;;;;;9.30;7.53;;;5.80;99.90;;;;;;5050195;28;20503;-38
2020/12/01 04:11:51;;;;;;;10.93;8.13;;;6.10;99.90;;;;;;5049305;28;20424;-38
2020/12/01 04:14:17;;;;;;;8.27;6.63;;;6.00;99.90;;;;;;5049615;28;20432;-38
2020/12/01 04:16:42;;;;;;;9.47;7.80;;;6.00;99.90;;;;;;5048573;28;20774;-38
2020/12/01 04:19:08;;;;;;;10.47;7.70;;;6.10;99.90;;;;;;5049587;28;20463;-38
2020/12/01 04:21:34;;;;;;;8.33;7.37;;;6.20;99.90;;;;;;5049710;28;20194;-38
2020/12/01 04:24:00;;;;;;;10.80;8.00;;;6.30;99.90;;;;;;5049397;28;20467;-38
2020/12/01 04:26:26;;;;;;;10.40;8.57;;;6.30;99.90;;;;;;5049746;28;20424;-38
2020/12/01 04:28:52;;;;;;;10.73;8.47;;;6.30;99.90;;;;;;5049496;28;20523;-38
2020/12/01 04:31:18;;;;;;;11.63;8.57;;;6.10;99.90;;;;;;5049650;28;20204;-38
2020/12/01 04:33:44;;;;;;;11.50;9.23;;;5.80;99.90;;;;;;5047333;28;20194;-38
2020/12/01 04:36:10;;;;;;;10.13;8.90;;;6.10;99.90;;;;;;5049787;28;20990;-38
2020/12/01 04:38:36;;;;;;;9.27;7.90;;;6.20;99.90;;;;;;5049505;28;20555;-37
2020/12/01 04:41:03;;;;;;;12.97;10.20;;;6.00;99.90;;;;;;5049558;28;20519;-38
2020/12/01 04:43:41;;;;;;;12.50;9.73;;;6.10;99.90;;;;;;5048755;28;20768;-38
2020/12/01 04:46:12;;;;;;;11.60;9.07;;;5.90;99.90;;;;;;5049306;28;20455;-38
2020/12/01 04:49:18;;;;;;;12.60;9.03;;;6.00;99.90;;;;;;5048031;28;20572;-39
2020/12/01 04:52:12;;;;;;;12.63;10.00;;;5.80;99.90;;;;;;5051739;28;20428;-38
2020/12/01 04:55:00;;;;;;;12.27;9.90;;;6.10;99.90;;;;;;5047477;28;20946;-38
2020/12/01 04:57:51;;;;;;;11.53;9.30;;;5.80;99.90;;;;;;5049457;28;20443;-38
2020/12/01 05:00:16;;;;;;;13.60;10.03;;;5.90;99.90;;;;;;5049133;28;20538;-38
2020/12/01 05:02:59;;;;;;;11.17;9.57;;;5.90;99.90;;;;;;5049065;28;20420;-38
2020/12/01 05:06:57;;;;;;;11.10;9.00;;;6.00;99.90;;;;;;5048972;28;20198;-38
2020/12/01 05:09:16;;;;;;;11.33;9.37;;;6.00;99.90;;;;;;5049237;28;20428;-38
2020/12/01 05:11:55;;;;;;;13.70;9.67;;;5.90;99.90;;;;;;5048976;28;20428;-38
2020/12/01 05:14:36;;;;;;;15.13;9.90;;;5.80;99.90;;;;;;5048149;28;20466;-38
2020/12/01 05:17:26;;;;;;;11.40;9.50;;;6.10;99.90;;;;;;5047744;28;20447;-38
2020/12/01 05:19:52;;;;;;;11.30;8.80;;;6.00;99.90;;;;;;5048755;28;20424;-39
2020/12/01 05:22:19;;;;;;;11.40;9.00;;;6.10;99.90;;;;;;5048035;28;20435;-38
2020/12/01 05:24:47;;;;;;;11.77;9.97;;;6.40;99.90;;;;;;5047815;28;20194;-37
2020/12/01 05:27:25;;;;;;;12.30;10.10;;;6.10;99.90;;;;;;5048796;28;20448;-38
2020/12/01 05:30:04;;;;;;;11.13;9.77;;;6.00;99.90;;;;;;5035159;28;20420;-38
2020/12/01 05:32:39;;;;;;;12.43;10.13;;;6.10;99.90;;;;;;5048723;28;20807;-38
2020/12/01 05:35:14;;;;;;;13.20;10.57;;;6.20;99.90;;;;;;5047838;28;20444;-38
2020/12/01 05:37:48;;;;;;;13.20;9.73;;;6.00;99.90;;;;;;5048336;28;20455;-38
2020/12/01 05:40:15;;;;;;;12.40;10.00;;;6.00;99.90;;;;;;5047288;28;20450;-38
2020/12/01 05:42:45;;;;;;;11.70;10.03;;;5.90;99.90;;;;;;5046610;28;20432;-38
2020/12/01 05:45:23;;;;;;;12.30;10.10;;;6.00;99.90;;;;;;5048072;28;20413;-38
2020/12/01 05:47:55;;;;;;;11.33;9.30;;;6.00;99.90;;;;;;5048611;28;20415;-38
2020/12/01 05:50:24;;;;;;;12.37;9.70;;;6.30;99.90;;;;;;5048471;28;20790;-38
2020/12/01 05:53:02;;;;;;;12.03;9.93;;;6.20;99.90;;;;;;5047687;28;20447;-38
2020/12/01 05:55:28;;;;;;;12.00;9.03;;;6.20;99.90;;;;;;5046749;28;20481;-38
2020/12/01 05:57:59;;;;;;;9.70;8.40;;;6.30;99.90;;;;;;5042338;28;20503;-40
2020/12/01 06:00:32;;;;;;;13.13;9.17;;;6.40;99.90;;;;;;5047891;28;20841;-38
2020/12/01 06:03:28;;;;;;;11.23;9.60;;;6.40;99.90;;;;;;5047218;28;20412;-38
2020/12/01 06:05:57;;;;;;;13.33;9.23;;;6.50;99.90;;;;;;5037960;28;20846;-38
2020/12/01 06:08:49;;;;;;;11.90;9.80;;;6.50;99.90;;;;;;5047890;28;20432;-38
2020/12/01 06:11:43;;;;;;;12.43;10.10;;;6.50;99.90;;;;;;5047853;28;20420;-38
2020/12/01 06:14:24;;;;;;;10.87;9.33;;;6.40;99.90;;;;;;5047399;28;20894;-39
2020/12/01 06:16:57;;;;;;;12.40;9.73;;;6.50;99.90;;;;;;5046880;28;20664;-38
2020/12/01 06:19:53;;;;;;;13.37;9.60;;;6.40;99.90;;;;;;5047821;28;20503;-38
2020/12/01 06:22:18;;;;;;;12.43;9.60;;;6.50;99.90;;;;;;5045260;28;20923;-39
2020/12/01 06:24:47;;;;;;;13.80;10.60;;;6.40;99.90;;;;;;5046568;28;20413;-38
2020/12/01 06:27:31;;;;;;;18.33;10.37;;;6.40;99.90;;;;;;5047711;28;20200;-38
2020/12/01 06:30:28;;;;;;;10.87;9.20;;;6.20;99.90;;;;;;5035591;28;20444;-38
2020/12/01 06:33:03;;;;;;;14.27;9.67;;;6.20;99.90;;;;;;5046971;28;20448;-38
2020/12/01 06:36:09;;;;;;;11.53;9.07;;;6.40;99.90;;;;;;5051617;28;20425;-38
2020/12/01 06:38:53;;;;;;;12.33;9.13;;;6.40;99.90;;;;;;5051402;28;20843;-38
2020/12/01 06:41:23;;;;;;;14.70;11.03;;;6.40;99.90;;;;;;5050814;28;20817;-38
2020/12/01 06:43:56;;;;;;;14.70;10.83;;;6.50;99.90;;;;;;5051131;28;20420;-38
2020/12/01 06:46:44;;;;;;;16.50;12.53;;;6.40;99.90;;;;;;5051959;28;20428;-38
2020/12/01 06:49:14;;;;;;;18.80;10.83;;;6.40;99.90;;;;;;5051082;28;20428;-38
2020/12/01 06:51:45;;;;;;;16.27;12.40;;;6.40;99.90;;;;;;5051997;28;20442;-38
2020/12/01 06:54:13;;;;;;;15.80;10.60;;;6.50;99.90;;;;;;5050670;28;20958;-38
2020/12/01 06:56:39;;;;;;;19.97;11.97;;;6.40;99.90;;;;;;5051356;28;20428;-38
2020/12/01 06:59:09;;;;;;;17.33;12.30;;;6.10;99.90;;;;;;5051172;28;20464;-38
2020/12/01 07:01:36;;;;;;;16.53;12.33;;;6.20;99.90;;;;;;5051216;28;20432;-38
2020/12/01 07:04:13;;;;;;;23.90;13.50;;;6.20;99.90;;;;;;5050955;28;20547;-38
2020/12/01 07:06:53;;;;;;;21.10;13.30;;;6.20;99.90;;;;;;5051011;28;20453;-38
2020/12/01 07:09:21;;;;;;;28.53;15.23;;;6.20;99.90;;;;;;5049396;28;20543;-39
2020/12/01 07:12:08;;;;;;;23.40;12.97;;;6.30;99.90;;;;;;5049008;28;20436;-38
2020/12/01 07:14:42;;;;;;;19.70;13.47;;;6.30;99.90;;;;;;5050161;28;20427;-38
2020/12/01 07:17:20;;;;;;;22.93;14.07;;;6.30;99.90;;;;;;5045157;28;20439;-38
2020/12/01 07:19:56;;;;;;;26.93;15.53;;;6.30;99.90;;;;;;5052415;28;20490;-38
2020/12/01 07:22:36;;;;;;;24.70;14.67;;;6.20;99.90;;;;;;5050671;28;20482;-38
2020/12/01 07:25:25;;;;;;;24.20;15.60;;;6.20;99.90;;;;;;5069721;28;20419;-38
2020/12/01 07:27:59;;;;;;;27.77;15.70;;;6.50;99.90;;;;;;5063556;28;20431;-38
2020/12/01 07:30:28;;;;;;;25.50;14.53;;;6.50;99.90;;;;;;5042459;28;20419;-38
2020/12/01 07:32:57;;;;;;;21.43;14.37;;;6.60;99.90;;;;;;5049984;28;20434;-38
2020/12/01 07:35:35;;;;;;;28.67;15.63;;;6.40;99.90;;;;;;5051031;28;20431;-37
2020/12/01 07:38:07;;;;;;;25.93;15.07;;;6.60;99.90;;;;;;5049478;28;20989;-38
2020/12/01 07:40:47;;;;;;;31.73;17.00;;;6.30;99.90;;;;;;5050818;28;20450;-38
2020/12/01 07:43:16;;;;;;;25.13;15.83;;;6.60;99.90;;;;;;5048308;28;20435;-38
2020/12/01 07:45:42;;;;;;;25.73;15.53;;;6.30;99.90;;;;;;5049240;28;20429;-38
2020/12/01 07:48:13;;;;;;;31.10;16.23;;;6.50;99.90;;;;;;5050106;28;20443;-38
2020/12/01 07:50:39;;;;;;;28.87;18.10;;;6.40;99.90;;;;;;5051387;28;20797;-38
2020/12/01 07:53:09;;;;;;;29.40;17.20;;;6.30;99.90;;;;;;5049766;28;20768;-38
2020/12/01 07:55:56;;;;;;;35.27;17.63;;;6.40;99.90;;;;;;5068679;28;20447;-38
2020/12/01 07:58:24;;;;;;;30.87;16.63;;;6.50;99.90;;;;;;5058080;28;20467;-37
2020/12/01 08:00:58;;;;;;;33.43;16.40;;;6.50;99.90;;;;;;5050640;28;20428;-39
2020/12/01 08:03:25;;;;;;;24.33;15.20;;;6.50;99.90;;;;;;5049452;28;20423;-37
2020/12/01 08:05:52;;;;;;;29.77;16.23;;;6.50;99.90;;;;;;5049769;28;20785;-38
2020/12/01 08:08:22;;;;;;;31.80;16.27;;;6.40;99.90;;;;;;5048308;28;20429;-37
2020/12/01 08:10:50;;;;;;;30.63;16.33;;;6.50;99.90;;;;;;5050608;28;20428;-38
2020/12/01 08:13:19;;;;;;;31.27;17.40;;;6.60;99.90;;;;;;5049068;28;20450;-38
2020/12/01 08:15:44;;;;;;;33.30;17.50;;;6.40;99.90;;;;;;5049131;28;20440;-37
2020/12/01 08:18:15;;;;;;;32.20;17.77;;;6.60;99.90;;;;;;5049574;28;20900;-38
2020/12/01 08:20:42;;;;;;;31.97;17.47;;;6.50;99.90;;;;;;5048568;28;20499;-38
2020/12/01 08:23:21;;;;;;;32.83;18.50;;;6.50;99.90;;;;;;5067647;28;20591;-39
2020/12/01 08:26:40;;;;;;;31.20;18.03;;;6.60;99.90;;;;;;5069754;28;20466;-38
2020/12/01 08:29:30;;;;;;;34.60;19.60;;;6.50;99.90;;;;;;5047864;28;20432;-37
2020/12/01 08:31:59;;;;;;;34.10;19.37;;;6.80;99.90;;;;;;5049918;28;20496;-38
2020/12/01 08:34:41;;;;;;;31.43;17.07;;;6.60;99.90;;;;;;5049158;28;20906;-37
2020/12/01 08:37:27;;;;;;;36.60;19.83;;;6.80;99.90;;;;;;5049704;28;20420;-37
2020/12/01 08:40:03;;;;;;;39.93;21.10;;;6.80;99.90;;;;;;5049763;28;20420;-38
2020/12/01 08:42:42;;;;;;;30.57;18.93;;;6.70;99.90;;;;;;5066958;28;20792;-38
2020/12/01 08:45:13;;;;;;;38.37;20.57;;;6.90;99.90;;;;;;5068923;28;20404;-37
2020/12/01 08:47:43;;;;;;;32.73;19.40;;;6.70;99.90;;;;;;5069382;28;20484;-38
2020/12/01 08:50:29;;;;;;;35.30;19.07;;;6.80;99.90;;;;;;5068568;28;20415;-37
2020/12/01 08:53:22;;;;;;;32.30;18.43;;;6.80;99.90;;;;;;5048760;28;20836;-38
2020/12/01 08:55:52;;;;;;;32.83;20.20;;;6.70;99.90;;;;;;5047972;28;20875;-37
2020/12/01 08:58:27;;;;;;;36.27;19.60;;;7.00;99.90;;;;;;5048691;28;20467;-37
2020/12/01 09:01:05;;;;;;;32.80;19.23;;;6.80;99.90;;;;;;5049117;28;20426;-37
2020/12/01 09:03:32;;;;;;;35.20;19.30;;;6.80;99.90;;;;;;5047233;28;20834;-38
2020/12/01 09:05:59;;;;;;;36.80;19.30;;;7.00;99.90;;;;;;5048833;28;20424;-38
2020/12/01 09:22:12;;;;;;;36.93;20.70;;;7.00;99.90;;;;;;5048791;28;20416;-37
2020/12/01 09:24:39;;;;;;;37.80;19.90;;;6.90;99.90;;;;;;5048102;28;20505;-37
2020/12/01 09:27:16;;;;;;;36.30;18.27;;;7.00;99.90;;;;;;5048546;28;20493;-37
2020/12/01 09:29:50;;;;;;;30.20;18.03;;;6.90;99.90;;;;;;5048381;28;20424;-37
2020/12/01 09:32:20;;;;;;;35.20;18.33;;;6.80;99.90;;;;;;5048575;28;20499;-37
2020/12/01 09:34:46;;;;;;;42.73;19.30;;;6.90;99.90;;;;;;5048195;28;20969;-38
2020/12/01 09:37:12;;;;;;;38.10;19.80;;;6.80;99.90;;;;;;5048158;28;20443;-38
2020/12/01 09:39:38;;;;;;;36.77;19.33;;;6.80;99.90;;;;;;5048895;28;20456;-38
2020/12/01 09:42:10;;;;;;;33.90;20.00;;;6.80;99.90;;;;;;5047889;28;20507;-38
2020/12/01 09:47:08;;;;;;;26.47;16.27;;;6.80;99.90;;;;;;5047072;28;20508;-37
2020/12/01 09:49:34;;;;;;;27.90;15.83;;;7.00;99.90;;;;;;5048470;28;20452;-38
2020/12/01 09:52:07;;;;;;;31.50;16.43;;;6.70;99.90;;;;;;5048154;28;20549;-38
2020/12/01 09:57:35;;;;;;;24.20;15.50;;;6.90;99.90;;;;;;5048328;28;20874;-38
2020/12/01 10:08:07;;;;;;;18.20;11.13;;;7.10;99.90;;;;;;5048008;28;20968;-38
2020/12/01 10:13:42;;;;;;;19.60;11.10;;;7.10;99.90;;;;;;5046833;28;20557;-37
2020/12/01 10:22:29;;;;;;;18.10;10.63;;;7.20;99.90;;;;;;5048251;28;20436;-37
2020/12/01 10:31:08;;;;;;;16.00;10.73;;;7.20;99.90;;;;;;5047486;28;20835;-38
2020/12/01 10:34:52;;;;;;;16.53;9.90;;;7.70;99.90;;;;;;5047021;28;20431;-38
2020/12/01 10:37:18;;;;;;;14.73;10.03;;;7.60;99.90;;;;;;5046812;28;20686;-38
2020/12/01 10:39:44;;;;;;;13.90;9.73;;;7.60;99.90;;;;;;5047565;28;20865;-37
2020/12/01 10:42:11;;;;;;;13.30;9.23;;;7.60;99.90;;;;;;5047510;28;20802;-37
2020/12/01 10:44:38;;;;;;;12.77;8.50;;;7.70;99.90;;;;;;5046722;28;20431;-37
2020/12/01 10:47:04;;;;;;;10.63;8.30;;;7.50;99.90;;;;;;5047646;28;20428;-38
2020/12/01 10:49:30;;;;;;;12.53;7.60;;;7.50;99.90;;;;;;5047491;28;20439;-38
2020/12/01 10:51:56;;;;;;;11.70;8.00;;;7.70;99.90;;;;;;5047509;28;20444;-38
2020/12/01 10:54:22;;;;;;;10.83;7.30;;;7.70;99.90;;;;;;5046863;28;20200;-37
2020/12/01 10:56:49;;;;;;;10.20;7.73;;;7.70;99.90;;;;;;5046015;28;20590;-37
2020/12/01 10:59:16;;;;;;;10.60;7.90;;;7.60;99.90;;;;;;5047155;28;20962;-38
2020/12/01 11:01:42;;;;;;;11.27;8.00;;;7.70;99.90;;;;;;5047406;28;20801;-38
2020/12/01 11:04:09;;;;;;;8.23;6.80;;;7.60;99.90;;;;;;5046927;28;20443;-38
2020/12/01 11:06:36;;;;;;;10.07;7.50;;;7.50;99.90;;;;;;5047036;28;20436;-38
2020/12/01 11:09:04;;;;;;;10.77;7.90;;;7.60;99.90;;;;;;5047284;28;20956;-38
2020/12/01 11:11:30;;;;;;;9.80;7.00;;;7.70;99.90;;;;;;5047018;28;20523;-38
2020/12/01 11:13:55;;;;;;;10.23;6.93;;;7.80;99.90;;;;;;5046741;28;20986;-37
2020/12/01 11:16:21;;;;;;;10.13;7.80;;;7.70;99.90;;;;;;5046347;28;20190;-38
2020/12/01 11:18:47;;;;;;;10.40;7.07;;;7.70;99.90;;;;;;5047202;28;20279;-38
2020/12/01 11:21:13;;;;;;;8.83;7.87;;;7.80;99.90;;;;;;5048578;28;20280;-38
2020/12/01 11:23:38;;;;;;;9.57;7.43;;;7.80;99.90;;;;;;5050290;28;20186;-37
2020/12/01 11:26:04;;;;;;;9.83;8.13;;;7.60;99.90;;;;;;5050808;28;20186;-38
2020/12/01 11:28:30;;;;;;;8.63;6.70;;;7.70;99.90;;;;;;5050469;28;20197;-39
2020/12/01 11:30:56;;;;;;;9.70;6.93;;;7.80;99.90;;;;;;5051035;28;20206;-38
2020/12/01 11:33:21;;;;;;;9.37;7.93;;;8.00;99.90;;;;;;5049069;28;20216;-38
2020/12/01 11:35:48;;;;;;;7.40;6.27;;;7.90;99.90;;;;;;5049464;28;20200;-38
2020/12/01 11:38:14;;;;;;;9.40;7.43;;;7.70;99.90;;;;;;5050645;28;20283;-38
2020/12/01 11:40:40;;;;;;;8.50;7.60;;;7.90;99.90;;;;;;5050867;28;20506;-38
2020/12/01 11:43:06;;;;;;;8.50;7.70;;;7.90;99.90;;;;;;5049690;28;20539;-38
2020/12/01 11:45:31;;;;;;;9.17;7.60;;;7.80;99.90;;;;;;5050574;28;20225;-37
2020/12/01 11:47:57;;;;;;;8.83;7.93;;;7.80;99.90;;;;;;5049104;28;20774;-38
2020/12/01 11:50:23;;;;;;;7.90;7.10;;;7.80;99.90;;;;;;5050540;28;20201;-37
2020/12/01 11:52:48;;;;;;;8.90;7.37;;;7.70;99.90;;;;;;5050220;28;20229;-38
2020/12/01 11:55:14;;;;;;;8.90;7.70;;;7.80;99.90;;;;;;5050054;28;20197;-38
2020/12/01 11:57:40;;;;;;;8.53;7.60;;;8.00;99.90;;;;;;5048889;28;20826;-37
2020/12/01 12:00:08;;;;;;;8.67;7.30;;;7.90;99.90;;;;;;5049152;28;20656;-39
2020/12/01 12:02:34;;;;;;;8.77;7.87;;;8.00;99.90;;;;;;5050459;28;20509;-38
2020/12/01 12:05:00;;;;;;;8.63;7.70;;;8.10;99.90;;;;;;5049665;28;20471;-37
2020/12/01 12:07:25;;;;;;;8.70;7.80;;;7.90;99.90;;;;;;5049058;28;20468;-38
2020/12/01 12:09:51;;;;;;;9.37;8.37;;;7.70;99.90;;;;;;5050122;28;20202;-38
2020/12/01 12:12:17;;;;;;;12.10;9.90;;;8.00;99.90;;;;;;5050084;28;20206;-38
2020/12/01 12:14:43;;;;;;;10.87;9.80;;;8.10;99.90;;;;;;5048259;28;20193;-37
2020/12/01 12:17:09;;;;;;;12.10;10.50;;;8.10;99.90;;;;;;5048921;28;20493;-38
2020/12/01 12:19:34;;;;;;;15.10;13.20;;;8.10;99.90;;;;;;5049653;28;20209;-37
2020/12/01 12:22:00;;;;;;;12.90;11.50;;;7.90;99.90;;;;;;5049839;28;20197;-37
2020/12/01 12:24:26;;;;;;;13.37;10.77;;;8.10;99.90;;;;;;5048904;28;20200;-38
2020/12/01 12:26:52;;;;;;;11.80;10.20;;;8.00;99.90;;;;;;5049970;28;20197;-37
2020/12/01 12:29:17;;;;;;;12.93;10.57;;;8.00;99.90;;;;;;5049677;28;20612;-38
2020/12/01 12:31:43;;;;;;;14.80;11.80;;;8.20;99.90;;;;;;5049193;28;20213;-38
2020/12/01 12:34:09;;;;;;;12.50;11.17;;;8.00;99.90;;;;;;5049179;28;20307;-38
2020/12/01 12:36:34;;;;;;;13.40;10.50;;;8.00;99.90;;;;;;5049584;28;20189;-37
2020/12/01 12:39:00;;;;;;;12.60;9.90;;;8.10;99.90;;;;;;5049142;28;20300;-38
2020/12/01 12:41:26;;;;;;;11.43;9.80;;;8.00;99.90;;;;;;5049485;28;21083;-38
2020/12/01 12:43:52;;;;;;;11.57;10.37;;;8.20;99.90;;;;;;5048867;28;20251;-38
2020/12/01 12:46:18;;;;;;;12.13;10.20;;;8.10;99.90;;;;;;5049310;28;20558;-38
2020/12/01 12:48:43;;;;;;;13.10;10.43;;;8.20;99.90;;;;;;5049646;28;20273;-38
2020/12/01 12:51:09;;;;;;;13.97;10.97;;;8.00;99.90;;;;;;5049201;28;20193;-38
2020/12/01 12:53:35;;;;;;;11.07;9.97;;;8.10;99.90;;;;;;5048599;28;20264;-38
2020/12/01 12:56:00;;;;;;;13.87;9.73;;;8.00;99.90;;;;;;5048990;28;20347;-38
2020/12/01 12:58:26;;;;;;;11.40;9.37;;;8.30;99.90;;;;;;5047811;28;20213;-38
2020/12/01 13:00:52;;;;;;;12.73;10.00;;;8.10;99.90;;;;;;5049375;28;20263;-38
2020/12/01 13:03:18;;;;;;;11.13;9.67;;;8.30;99.90;;;;;;5048335;28;20284;-37
2020/12/01 13:05:43;;;;;;;11.27;9.13;;;8.20;99.90;;;;;;5049136;28;20212;-38
2020/12/01 13:08:09;;;;;;;10.30;8.90;;;8.20;99.90;;;;;;5048733;28;20201;-38
2020/12/01 13:10:35;;;;;;;11.70;9.40;;;8.20;99.90;;;;;;5048799;28;20893;-39
2020/12/01 13:13:01;;;;;;;10.43;9.30;;;8.10;99.90;;;;;;5046882;28;20189;-38
2020/12/01 13:15:27;;;;;;;10.80;9.37;;;8.30;99.90;;;;;;5047371;28;20435;-38
2020/12/01 13:17:53;;;;;;;10.23;9.13;;;8.30;99.90;;;;;;5048416;28;20479;-38
2020/12/01 13:20:22;;;;;;;12.37;10.23;;;8.30;99.90;;;;;;5049115;28;20428;-38
2020/12/01 13:22:48;;;;;;;11.13;9.60;;;8.30;99.90;;;;;;5048951;28;20668;-38
2020/12/01 13:25:14;;;;;;;10.60;8.90;;;8.30;99.90;;;;;;5048047;28;20490;-38
2020/12/01 13:27:40;;;;;;;13.20;10.70;;;8.40;99.90;;;;;;5048426;28;20201;-38
2020/12/01 13:30:09;;;;;;;11.27;10.00;;;8.50;99.90;;;;;;5048511;28;20910;-38
2020/12/01 13:32:35;;;;;;;12.80;10.03;;;8.50;99.90;;;;;;5048350;28;20197;-38
2020/12/01 13:35:01;;;;;;;10.67;9.57;;;8.20;99.90;;;;;;5047594;28;20424;-38
2020/12/01 13:37:27;;;;;;;11.80;9.53;;;8.20;99.90;;;;;;5048412;28;20225;-39
2020/12/01 13:39:53;;;;;;;10.73;8.57;;;8.50;99.90;;;;;;5048162;28;20626;-38
2020/12/01 13:42:19;;;;;;;11.10;7.87;;;8.40;99.90;;;;;;5046678;28;20424;-40
2020/12/01 13:44:44;;;;;;;9.73;8.20;;;8.40;99.90;;;;;;5047220;28;20201;-37
2020/12/01 13:47:10;;;;;;;8.80;7.40;;;8.30;99.90;;;;;;5048336;28;20193;-38